map of MJM home
MJM - Airport
Location
City:  Mbuji Mayi, Kasai-Oriental (East Kasai), Democratic Republic of Congo (Zaire)
Name:Mbuji Mayi Airport
ICAO:FZWA
IATA:MJM

Details
Type:Airport (Aerodrome, Airfield)
Use:Public/Civil
Latitude:607'16"S (-6.121235)
Longitude:2334'08"E (23.569008)
Datum:WGS 1984
Elevation:2221 ft (677 m)
Variation:0.03W (WMM2015 magnetic declination)
0.12 annual change
Runways:1
Longest:6558 × 146 ft (1999 × 44.5 m), paved

Time
Time Zone:UTC+2
Local Time:

Weather
METAR:FZWA 191900Z 25010KT 9000 SCT016 FEW028CB BKN300 27/22 Q1011 NOSIG

Related Locations
Nearby:
Farthest:TNV: 12188 mi / 19614 km
Tabuaeran Island (Fanning Island), L, KI

Find:

   beyond  
but within

Other Information
Maps:
NOTAMs:
Links:
Sources:

  
  • flag of Democratic Republic of Congo (Zaire)
  

Sectional Chart

Flight Planning
at skyvector.com

Satellite Image

Google Maps Satellite view

 

Copyright © 2004-2018 Karl L. Swartz. All rights reserved.
The Great Circle Mapper name and logo are trademarks of the Great Circle Mapper.
All other trademarks mentioned herein belong to their respective owners.
Please see credits for attibutions and further copyright information.

  Follow gcmap on Facebook Follow gcmap on Twitter Follow gcmap on Google+ GCmap on LinkedIn

hCard Microformat

Geo Microformat